KMCI/MCI METAR and TAF weather

Enter ICAO airport designator
Station Type Date Time Source
KMCI METAR 2022/12/04 10:53 UTC NOAA

KMCI 041053Z 18009KT 10SM FEW150 OVC250 M03/M08 A3029 RMK AO2 SLP266 T10281083 $


Station Type Date Time Source
KMCI Decoded METAR 2022/12/04 10:53 UTC NOAA

KANSAS CITY INTERNATIONAL AIRPORT, MO, United States (KMCI) 39-18N 94-44W 320M
Dec 04, 2022 - 05:53 AM EST / 2022.12.04 1053 UTC
Wind: from the S (180 degrees) at 10 MPH (9 KT):0
Visibility: 10 mile(s):0
Sky conditions: overcast
Temperature: 27.0 F (-2.8 C)
Windchill: 17 F (-8 C):1
Dew Point: 17.1 F (-8.3 C)
Relative Humidity: 65%
Pressure (altimeter): 30.29 in. Hg (1025 hPa)
ob: KMCI 041053Z 18009KT 10SM FEW150 OVC250 M03/M08 A3029 RMK AO2 SLP266 T10281083
cycle: 11

Station Type Date Time Source
KMCI TAF 2022/12/04 06:22 UTC NOAA

TAF KMCI 040520Z 0406/0506 19007KT P6SM SCT150

Example: see airport list